Time;durP1;ratioP1;P1;durP2;ratioP2;P2;SDS_P1;SDS_P2;PMS_P1;PMS_P2;Temp;Humidity;BMP_temperature;BMP_pressure;BME280_temperature;BME280_humidity;BME280_pressure;Samples;Min_cycle;Max_cycle;Signal;HPM_P1;HPM_P2
2021/07/17 00:00:51;;;;;;;14.13;12.15;;;22.20;99.90;;;;;;5011430;28;20102;-93
2021/07/17 00:03:16;;;;;;;15.75;12.95;;;22.20;99.90;;;;;;5006015;28;20034;-92
2021/07/17 00:05:42;;;;;;;16.95;12.88;;;22.20;99.90;;;;;;5015029;28;20026;-93
2021/07/17 00:08:08;;;;;;;12.68;11.20;;;22.20;99.90;;;;;;4989232;28;20493;-91
2021/07/17 00:10:49;;;;;;;14.10;11.95;;;22.30;99.90;;;;;;4992328;28;20199;-92
2021/07/17 00:13:16;;;;;;;18.80;14.60;;;22.30;99.90;;;;;;5000102;28;21945;-91
2021/07/17 00:15:42;;;;;;;14.85;12.95;;;22.30;99.90;;;;;;5003815;28;20033;-95
2021/07/17 00:18:08;;;;;;;14.57;11.70;;;22.30;99.90;;;;;;4997795;28;20017;-90
2021/07/17 00:20:34;;;;;;;15.52;12.00;;;22.30;99.90;;;;;;5007893;28;20061;-92
2021/07/17 00:23:00;;;;;;;14.60;11.30;;;22.30;99.90;;;;;;5010553;28;20430;-89
2021/07/17 00:25:26;;;;;;;21.02;14.07;;;22.30;99.90;;;;;;4992663;28;20090;-89
2021/07/17 00:27:52;;;;;;;13.35;11.63;;;22.30;99.90;;;;;;4996899;28;20589;-92
2021/07/17 00:30:19;;;;;;;22.30;18.17;;;22.30;99.90;;;;;;4997626;28;20036;-91
2021/07/17 00:32:46;;;;;;;14.50;11.77;;;22.40;99.90;;;;;;5003890;28;20026;-92
2021/07/17 00:35:12;;;;;;;15.65;11.85;;;;;;;;;;5005571;28;20041;-91
2021/07/17 00:37:38;;;;;;;11.13;9.95;;;22.40;99.90;;;;;;5004782;28;20069;-93
2021/07/17 00:40:07;;;;;;;16.80;11.70;;;22.40;99.90;;;;;;5005535;28;20057;-92
2021/07/17 00:42:34;;;;;;;13.02;10.32;;;22.40;99.90;;;;;;4997890;28;20025;-93
2021/07/17 00:44:59;;;;;;;13.98;10.60;;;22.40;99.90;;;;;;4995587;28;20030;-93
2021/07/17 00:47:25;;;;;;;11.15;9.80;;;22.40;99.90;;;;;;5011790;28;20024;-91
2021/07/17 00:49:51;;;;;;;14.75;12.07;;;22.40;99.90;;;;;;5014374;28;20029;-92
2021/07/17 00:52:16;;;;;;;12.10;9.95;;;22.40;99.90;;;;;;4998827;28;20096;-92
2021/07/17 00:54:43;;;;;;;21.77;15.68;;;22.40;99.90;;;;;;4995804;28;20036;-89
2021/07/17 00:57:10;;;;;;;13.82;10.80;;;22.40;99.90;;;;;;4999395;28;20599;-94
2021/07/17 00:59:37;;;;;;;16.63;10.73;;;22.30;99.90;;;;;;5004241;28;20030;-95
2021/07/17 01:02:04;;;;;;;13.80;10.10;;;22.40;99.90;;;;;;5010441;28;20021;-90
2021/07/17 01:04:30;;;;;;;13.10;9.60;;;22.40;99.90;;;;;;5022022;28;20022;-92
2021/07/17 01:07:00;;;;;;;14.93;10.05;;;22.30;99.90;;;;;;5017197;28;20014;-90
2021/07/17 01:09:28;;;;;;;14.07;11.48;;;22.40;99.90;;;;;;5018410;28;20040;-89
2021/07/17 01:11:57;;;;;;;14.05;10.38;;;22.40;99.90;;;;;;5019314;28;20484;-91
2021/07/17 01:14:24;;;;;;;11.10;9.60;;;22.30;99.90;;;;;;5018064;28;20103;-92
2021/07/17 01:16:50;;;;;;;15.05;11.55;;;22.30;99.90;;;;;;5015909;28;20033;-92
2021/07/17 01:19:19;;;;;;;13.15;10.40;;;22.30;99.90;;;;;;5020317;28;20044;-91
2021/07/17 01:21:44;;;;;;;10.75;9.52;;;22.30;99.90;;;;;;5022419;28;20029;-93
2021/07/17 01:24:10;;;;;;;16.90;11.85;;;22.30;99.90;;;;;;5011650;28;20022;-91
2021/07/17 01:26:36;;;;;;;14.63;10.30;;;;;;;;;;5019877;28;20057;-91
2021/07/17 01:29:01;;;;;;;10.30;9.18;;;22.30;99.90;;;;;;5025756;28;20029;-92
2021/07/17 01:31:28;;;;;;;11.52;9.80;;;22.30;99.90;;;;;;5024355;28;20036;-92
2021/07/17 01:33:53;;;;;;;10.38;9.30;;;22.30;99.90;;;;;;5017880;28;20109;-93
2021/07/17 01:36:19;;;;;;;13.05;11.20;;;22.40;99.90;;;;;;5020202;28;20041;-91
2021/07/17 01:38:44;;;;;;;15.45;9.73;;;22.40;99.90;;;;;;5025933;28;20059;-93
2021/07/17 01:41:10;;;;;;;12.70;8.82;;;22.30;99.90;;;;;;5001122;28;20401;-93
2021/07/17 01:43:36;;;;;;;13.00;9.77;;;22.30;99.90;;;;;;5022937;28;20029;-92
2021/07/17 01:46:02;;;;;;;11.02;9.30;;;23.10;99.90;;;;;;5012596;28;20068;-90
2021/07/17 01:48:28;;;;;;;12.18;10.18;;;22.30;99.90;;;;;;5013822;28;20075;-92
2021/07/17 01:50:54;;;;;;;11.40;9.05;;;22.30;99.90;;;;;;5022181;28;20326;-93
2021/07/17 01:53:20;;;;;;;10.60;9.43;;;;;;;;;;5022686;28;20033;-92
2021/07/17 01:55:46;;;;;;;11.80;10.50;;;22.20;99.90;;;;;;5006604;28;20025;-90
2021/07/17 01:58:12;;;;;;;13.25;10.02;;;;;;;;;;5014583;28;20031;-92
2021/07/17 02:00:39;;;;;;;13.07;9.98;;;22.30;99.90;;;;;;5023157;28;20033;-92
2021/07/17 02:03:05;;;;;;;10.65;9.13;;;22.30;99.90;;;;;;5011559;28;20033;-90
2021/07/17 02:05:31;;;;;;;11.57;9.20;;;22.20;99.90;;;;;;5013740;28;20105;-93
2021/07/17 02:07:58;;;;;;;11.27;8.98;;;22.20;99.90;;;;;;5026295;28;20085;-93
2021/07/17 02:10:27;;;;;;;14.20;9.77;;;22.20;99.90;;;;;;5026216;28;20025;-92
2021/07/17 02:13:02;;;;;;;12.10;9.80;;;22.80;99.90;;;;;;5007481;28;20174;-90
2021/07/17 02:15:29;;;;;;;13.35;9.60;;;22.20;99.90;;;;;;5035047;28;20105;-93
2021/07/17 02:17:55;;;;;;;10.55;8.93;;;22.20;99.90;;;;;;5023554;28;20087;-89
2021/07/17 02:20:21;;;;;;;13.05;9.80;;;22.20;99.90;;;;;;5028925;28;20096;-94
2021/07/17 02:22:46;;;;;;;10.80;9.15;;;22.20;99.90;;;;;;5030360;28;20072;-92
2021/07/17 02:25:12;;;;;;;13.63;10.15;;;22.30;99.90;;;;;;5031595;28;20113;-91
2021/07/17 02:27:38;;;;;;;15.07;10.13;;;22.20;99.90;;;;;;5031886;28;20075;-91
2021/07/17 02:30:07;;;;;;;10.93;8.65;;;22.20;99.90;;;;;;5019992;28;20163;-93
2021/07/17 02:32:32;;;;;;;12.43;9.25;;;22.10;99.90;;;;;;5029221;28;20022;-92
2021/07/17 02:34:58;;;;;;;10.27;9.27;;;22.10;99.90;;;;;;5018292;28;20036;-89
2021/07/17 02:37:24;;;;;;;13.82;9.15;;;22.10;99.90;;;;;;5021392;28;20096;-90
2021/07/17 02:39:50;;;;;;;11.88;9.02;;;22.00;99.90;;;;;;5014236;28;20038;-95
2021/07/17 02:42:16;;;;;;;12.88;9.65;;;22.00;99.90;;;;;;5013093;28;20068;-93
2021/07/17 02:44:41;;;;;;;10.70;8.93;;;22.00;99.90;;;;;;5012768;28;20050;-95
2021/07/17 02:47:07;;;;;;;10.07;8.93;;;21.90;99.90;;;;;;5016393;28;20079;-91
2021/07/17 02:49:33;;;;;;;10.50;9.20;;;21.90;99.90;;;;;;5018752;28;20022;-89
2021/07/17 02:51:58;;;;;;;12.05;8.45;;;21.80;99.90;;;;;;5014627;28;20028;-89
2021/07/17 02:54:24;;;;;;;9.57;8.57;;;21.90;99.90;;;;;;5021308;28;20089;-93
2021/07/17 02:56:49;;;;;;;11.07;8.35;;;21.80;99.90;;;;;;5028303;28;20076;-92
2021/07/17 02:59:15;;;;;;;12.20;8.25;;;21.90;99.90;;;;;;5029802;28;20097;-90
2021/07/17 03:01:40;;;;;;;12.80;9.32;;;22.00;99.90;;;;;;5021216;28;20033;-89
2021/07/17 03:04:06;;;;;;;12.18;8.25;;;22.00;99.90;;;;;;5024863;28;20025;-91
2021/07/17 03:06:32;;;;;;;13.40;8.32;;;22.00;99.90;;;;;;5024251;28;20113;-92
2021/07/17 03:08:57;;;;;;;9.02;7.72;;;22.00;99.90;;;;;;5017044;28;20030;-88
2021/07/17 03:11:23;;;;;;;9.88;8.25;;;22.00;99.90;;;;;;5031880;28;20034;-92
2021/07/17 03:13:50;;;;;;;10.05;8.40;;;22.00;99.90;;;;;;5023398;28;20026;-91
2021/07/17 03:16:16;;;;;;;15.20;8.82;;;;;;;;;;5028972;28;20113;-91
2021/07/17 03:18:43;;;;;;;12.38;9.63;;;21.90;99.90;;;;;;5023489;28;20025;-90
2021/07/17 03:21:10;;;;;;;12.82;8.57;;;21.90;99.90;;;;;;5033757;28;20041;-91
2021/07/17 03:23:35;;;;;;;13.23;8.48;;;22.00;99.90;;;;;;5023888;28;20064;-91
2021/07/17 03:26:01;;;;;;;11.32;8.30;;;21.90;99.90;;;;;;5023738;28;20030;-90
2021/07/17 03:28:26;;;;;;;11.32;8.57;;;21.90;99.90;;;;;;5029320;28;20040;-89
2021/07/17 03:30:52;;;;;;;9.60;8.55;;;21.90;99.90;;;;;;5029272;28;20041;-93
2021/07/17 03:33:17;;;;;;;10.18;9.05;;;21.80;99.90;;;;;;5025118;28;20468;-90
2021/07/17 03:35:43;;;;;;;10.48;9.38;;;21.90;99.90;;;;;;5027031;28;20029;-90
2021/07/17 03:38:09;;;;;;;9.95;8.20;;;21.80;99.90;;;;;;5022871;28;20041;-91
2021/07/17 03:40:35;;;;;;;12.50;8.73;;;21.90;99.90;;;;;;5024996;28;20075;-94
2021/07/17 03:43:00;;;;;;;11.35;8.05;;;21.80;99.90;;;;;;5022576;28;20025;-91
2021/07/17 03:45:26;;;;;;;11.55;9.15;;;21.90;99.90;;;;;;5016772;28;20056;-92
2021/07/17 03:47:52;;;;;;;11.27;7.88;;;21.90;99.90;;;;;;5017095;28;20189;-91
2021/07/17 03:50:17;;;;;;;12.40;8.13;;;22.00;99.90;;;;;;5019136;28;20036;-93
2021/07/17 03:52:43;;;;;;;9.80;7.93;;;21.90;99.90;;;;;;5026344;28;20029;-91
2021/07/17 03:55:09;;;;;;;9.10;7.75;;;21.90;99.90;;;;;;5019769;28;20041;-92
2021/07/17 03:57:35;;;;;;;9.55;7.95;;;21.90;99.90;;;;;;5024731;28;20025;-92
2021/07/17 04:00:01;;;;;;;8.50;7.63;;;21.90;99.90;;;;;;5013912;28;20034;-89
2021/07/17 04:02:29;;;;;;;10.63;8.23;;;21.90;99.90;;;;;;5028833;28;20053;-93
2021/07/17 04:04:57;;;;;;;12.15;8.23;;;21.90;99.90;;;;;;5025902;28;20037;-93
2021/07/17 04:07:22;;;;;;;10.40;8.07;;;21.90;99.90;;;;;;5010135;28;20033;-92
2021/07/17 04:09:48;;;;;;;10.60;7.82;;;;;;;;;;5021445;28;20457;-90
2021/07/17 04:12:14;;;;;;;9.00;7.68;;;21.90;99.90;;;;;;5023216;28;20072;-92
2021/07/17 04:14:40;;;;;;;12.82;9.48;;;;;;;;;;5017158;28;20029;-94
2021/07/17 04:17:05;;;;;;;9.02;7.85;;;22.10;99.90;;;;;;5005594;28;20025;-91
2021/07/17 04:19:31;;;;;;;14.00;8.60;;;22.10;99.90;;;;;;5020658;28;20026;-91
2021/07/17 04:21:57;;;;;;;10.40;7.78;;;22.10;99.90;;;;;;5021685;28;20060;-93
2021/07/17 04:24:22;;;;;;;8.98;8.00;;;22.10;99.90;;;;;;5007830;28;20030;-92
2021/07/17 04:26:48;;;;;;;9.50;8.13;;;22.20;99.90;;;;;;5018771;28;20033;-93
2021/07/17 04:29:13;;;;;;;11.55;8.50;;;22.10;99.90;;;;;;5018421;28;20057;-91
2021/07/17 04:31:40;;;;;;;9.80;7.45;;;22.00;99.90;;;;;;5023337;28;20472;-94
2021/07/17 04:34:05;;;;;;;11.52;7.88;;;22.00;99.90;;;;;;5021694;28;20057;-91
2021/07/17 04:36:32;;;;;;;11.77;8.63;;;22.00;99.90;;;;;;5026171;28;20152;-93
2021/07/17 04:38:57;;;;;;;13.23;8.35;;;22.00;99.90;;;;;;5020804;28;20033;-91
2021/07/17 04:41:29;;;;;;;10.82;8.45;;;22.00;99.90;;;;;;5020775;28;20076;-92
2021/07/17 04:43:55;;;;;;;11.57;9.63;;;22.00;99.90;;;;;;5015361;28;20113;-91
2021/07/17 04:46:20;;;;;;;12.05;8.18;;;21.90;99.90;;;;;;5017690;28;20509;-90
2021/07/17 04:48:46;;;;;;;12.85;8.55;;;22.10;99.90;;;;;;5019067;28;20396;-91
2021/07/17 04:51:11;;;;;;;10.40;8.65;;;22.10;99.90;;;;;;5026816;28;20470;-90
2021/07/17 04:53:37;;;;;;;10.43;8.13;;;22.30;99.90;;;;;;5014928;28;20113;-91
2021/07/17 04:56:03;;;;;;;11.45;8.50;;;22.30;99.90;;;;;;5018900;28;20025;-90
2021/07/17 04:58:28;;;;;;;11.40;8.65;;;22.30;99.90;;;;;;5026989;28;20024;-91
2021/07/17 05:00:54;;;;;;;12.45;9.70;;;22.30;99.90;;;;;;5014301;28;20030;-91
2021/07/17 05:03:19;;;;;;;12.15;9.35;;;22.40;99.90;;;;;;5025426;28;20035;-91
2021/07/17 05:05:45;;;;;;;13.57;9.50;;;22.50;99.90;;;;;;5012009;28;20026;-91
2021/07/17 05:08:10;;;;;;;13.02;10.07;;;22.50;99.90;;;;;;5027007;28;20044;-92
2021/07/17 05:10:36;;;;;;;15.45;9.38;;;22.80;99.90;;;;;;5019428;28;20552;-91
2021/07/17 05:13:16;;;;;;;13.02;8.68;;;22.90;99.90;;;;;;5010848;28;20060;-95
2021/07/17 05:15:42;;;;;;;11.95;8.20;;;22.90;99.90;;;;;;5015126;28;20502;-93
2021/07/17 05:18:11;;;;;;;14.30;9.18;;;23.00;99.90;;;;;;5023292;28;20061;-91
2021/07/17 05:20:37;;;;;;;11.32;9.63;;;22.90;99.90;;;;;;5016575;28;20085;-90
2021/07/17 05:23:03;;;;;;;11.80;10.25;;;22.90;99.90;;;;;;5017114;28;20030;-95
2021/07/17 05:25:29;;;;;;;14.88;10.10;;;23.00;99.90;;;;;;5019585;28;20026;-93
2021/07/17 05:27:54;;;;;;;12.48;11.05;;;22.90;99.90;;;;;;5021956;28;20044;-91
2021/07/17 05:30:20;;;;;;;12.77;9.88;;;22.80;99.90;;;;;;5015983;28;20033;-91
2021/07/17 05:32:45;;;;;;;12.45;11.18;;;22.80;99.90;;;;;;5019702;28;20053;-94
2021/07/17 05:35:11;;;;;;;12.77;11.20;;;22.80;99.90;;;;;;5023887;28;20108;-91
2021/07/17 05:37:37;;;;;;;13.60;11.43;;;22.90;99.90;;;;;;5024048;28;20105;-88
2021/07/17 05:40:04;;;;;;;14.68;12.18;;;23.00;99.90;;;;;;5023666;28;20464;-90
2021/07/17 05:42:30;;;;;;;14.25;12.02;;;23.00;99.90;;;;;;5023475;28;20064;-94
2021/07/17 05:44:55;;;;;;;18.48;12.00;;;23.00;99.90;;;;;;5025806;28;20068;-92
2021/07/17 05:47:21;;;;;;;12.52;11.07;;;23.20;99.90;;;;;;5015047;28;20464;-92
2021/07/17 05:49:46;;;;;;;13.57;12.15;;;23.30;99.90;;;;;;5017304;28;20091;-91
2021/07/17 05:52:12;;;;;;;13.23;11.80;;;23.30;99.90;;;;;;5024974;28;20726;-92
2021/07/17 05:54:38;;;;;;;15.00;11.48;;;23.30;99.90;;;;;;5021412;28;20116;-90
2021/07/17 05:57:03;;;;;;;12.90;11.50;;;23.20;99.90;;;;;;5012164;28;20026;-91
2021/07/17 05:59:29;;;;;;;17.15;12.27;;;23.10;99.90;;;;;;5014523;28;20527;-93
2021/07/17 06:01:55;;;;;;;14.95;12.43;;;23.00;99.90;;;;;;5019782;28;20693;-92
2021/07/17 06:04:21;;;;;;;14.45;12.55;;;23.00;99.90;;;;;;5022112;28;20033;-88
2021/07/17 06:06:47;;;;;;;18.08;12.52;;;22.90;99.90;;;;;;5013284;28;20526;-92
2021/07/17 06:09:13;;;;;;;13.77;12.35;;;23.10;99.90;;;;;;5022856;28;20108;-94
2021/07/17 06:11:38;;;;;;;15.32;13.73;;;23.20;99.90;;;;;;5016699;28;20054;-91
2021/07/17 06:14:04;;;;;;;14.18;12.57;;;23.10;99.90;;;;;;5002174;28;20044;-91
2021/07/17 06:16:30;;;;;;;15.00;13.32;;;;;;;;;;4989083;28;20445;-91
2021/07/17 06:18:56;;;;;;;14.18;12.73;;;;;;;;;;5025198;28;20606;-94
2021/07/17 06:21:21;;;;;;;21.15;15.55;;;23.40;99.90;;;;;;5017116;28;20025;-91
2021/07/17 06:23:47;;;;;;;13.50;12.18;;;23.40;99.90;;;;;;5015856;28;20033;-92
2021/07/17 06:26:13;;;;;;;14.93;13.40;;;23.20;99.90;;;;;;5014531;28;20151;-88
2021/07/17 06:28:38;;;;;;;17.10;13.98;;;23.20;99.90;;;;;;5019019;28;20393;-93
2021/07/17 06:31:04;;;;;;;14.85;13.25;;;23.20;99.90;;;;;;5025917;28;20471;-91
2021/07/17 06:33:29;;;;;;;21.48;15.57;;;23.00;99.90;;;;;;5027933;28;20357;-91
2021/07/17 06:35:55;;;;;;;16.58;14.10;;;23.00;99.90;;;;;;5013498;28;20519;-90
2021/07/17 06:38:20;;;;;;;18.95;14.95;;;23.00;99.90;;;;;;5020240;28;20634;-90
2021/07/17 06:40:46;;;;;;;19.80;14.98;;;22.90;99.90;;;;;;5019908;28;20037;-93
2021/07/17 06:43:12;;;;;;;20.10;14.85;;;22.80;99.90;;;;;;5021843;28;20484;-90
2021/07/17 06:45:37;;;;;;;19.98;15.07;;;22.60;99.90;;;;;;5007697;28;20499;-90
2021/07/17 06:48:07;;;;;;;17.70;14.32;;;;;;;;;;5004280;28;20084;-90
2021/07/17 06:50:32;;;;;;;17.67;15.40;;;22.50;99.90;;;;;;5006075;28;20068;-91
2021/07/17 06:52:58;;;;;;;19.25;15.00;;;22.40;99.90;;;;;;5016563;28;20013;-91
2021/07/17 06:55:23;;;;;;;19.17;16.05;;;22.40;99.90;;;;;;5002690;28;20032;-91
2021/07/17 06:57:49;;;;;;;19.02;16.95;;;22.30;99.90;;;;;;5030489;28;20025;-92
2021/07/17 07:00:16;;;;;;;18.48;16.58;;;22.40;99.90;;;;;;5031992;28;20459;-94
2021/07/17 07:02:42;;;;;;;19.00;15.60;;;22.50;99.90;;;;;;5034316;28;20034;-93
2021/07/17 07:05:09;;;;;;;17.92;15.80;;;22.50;99.90;;;;;;5016125;28;20428;-91
2021/07/17 07:07:35;;;;;;;18.48;16.48;;;22.60;99.90;;;;;;5026910;28;20048;-89
2021/07/17 07:10:03;;;;;;;16.92;15.20;;;22.70;99.90;;;;;;5019509;28;20029;-92
2021/07/17 07:12:28;;;;;;;19.05;15.52;;;22.70;99.90;;;;;;5041117;28;20556;-83
2021/07/17 07:14:54;;;;;;;17.55;15.68;;;23.00;99.90;;;;;;5005967;28;20628;-81
2021/07/17 07:17:19;;;;;;;20.50;16.05;;;22.70;99.90;;;;;;5007494;28;20099;-83
2021/07/17 07:19:45;;;;;;;19.30;17.27;;;22.70;99.90;;;;;;5003517;28;20050;-85
2021/07/17 07:22:10;;;;;;;16.95;15.18;;;22.80;99.90;;;;;;5000351;28;20384;-84
2021/07/17 07:24:36;;;;;;;17.88;15.82;;;22.80;99.90;;;;;;5004260;28;20024;-82
2021/07/17 07:27:01;;;;;;;21.80;16.52;;;22.90;99.90;;;;;;5012344;28;20298;-80
2021/07/17 07:29:27;;;;;;;18.00;15.85;;;23.00;99.90;;;;;;5008510;28;20120;-83
2021/07/17 07:31:53;;;;;;;17.85;15.35;;;22.90;99.90;;;;;;5016397;28;20031;-84
2021/07/17 07:34:20;;;;;;;17.20;15.45;;;22.90;99.90;;;;;;5010715;28;20100;-80
2021/07/17 07:36:47;;;;;;;19.48;15.15;;;23.00;99.90;;;;;;5020508;28;20050;-85
2021/07/17 07:39:12;;;;;;;15.85;14.35;;;23.50;99.90;;;;;;5024506;28;20036;-85
2021/07/17 07:41:38;;;;;;;16.15;14.18;;;23.50;99.90;;;;;;5012474;28;20380;-83
2021/07/17 07:44:04;;;;;;;14.85;13.30;;;23.80;99.90;;;;;;5005476;28;20455;-82
2021/07/17 07:46:31;;;;;;;16.90;14.52;;;23.90;99.90;;;;;;5006601;28;20029;-83
2021/07/17 07:48:57;;;;;;;16.45;14.75;;;23.90;99.90;;;;;;5010344;28;20037;-80
2021/07/17 07:51:22;;;;;;;15.02;13.40;;;24.00;99.90;;;;;;5010644;28;20041;-86
2021/07/17 07:53:50;;;;;;;16.13;14.43;;;23.60;99.90;;;;;;5014624;28;20026;-82
2021/07/17 07:56:16;;;;;;;15.18;13.50;;;23.60;99.90;;;;;;4998807;28;20485;-82
2021/07/17 07:58:41;;;;;;;15.32;13.77;;;23.50;99.90;;;;;;5012550;28;20029;-80
2021/07/17 08:01:07;;;;;;;15.52;13.85;;;23.60;99.90;;;;;;5000707;28;20045;-82
2021/07/17 08:03:34;;;;;;;14.77;13.00;;;23.80;99.90;;;;;;4995177;28;20021;-83
2021/07/17 08:05:59;;;;;;;16.42;13.02;;;23.80;99.90;;;;;;5012490;28;20033;-82
2021/07/17 08:08:25;;;;;;;14.52;12.20;;;23.70;99.90;;;;;;5016618;28;20467;-84
2021/07/17 08:10:50;;;;;;;15.25;13.40;;;23.80;99.90;;;;;;5005384;28;20093;-86
2021/07/17 08:13:16;;;;;;;15.10;12.63;;;23.80;99.90;;;;;;5012554;28;20044;-88
2021/07/17 08:15:41;;;;;;;16.02;14.38;;;24.00;99.90;;;;;;5008996;28;20473;-88
2021/07/17 08:18:07;;;;;;;15.38;13.77;;;24.10;99.90;;;;;;5026542;28;20113;-92
2021/07/17 08:20:33;;;;;;;16.15;13.93;;;24.00;99.90;;;;;;5022315;28;20060;-91
2021/07/17 08:23:08;;;;;;;16.70;13.57;;;24.00;99.90;;;;;;5005980;28;20048;-90
2021/07/17 08:25:35;;;;;;;15.05;12.73;;;24.00;99.90;;;;;;4997503;28;20036;-90
2021/07/17 08:28:00;;;;;;;16.05;14.13;;;24.20;99.90;;;;;;5012373;28;20036;-92
2021/07/17 08:30:26;;;;;;;17.15;15.05;;;24.10;99.90;;;;;;5012516;28;20026;-91
2021/07/17 08:32:55;;;;;;;17.40;14.20;;;24.20;99.90;;;;;;5024398;28;20044;-89
2021/07/17 08:35:22;;;;;;;15.80;13.50;;;24.30;99.90;;;;;;5025299;28;20079;-91
2021/07/17 08:37:47;;;;;;;14.57;13.07;;;24.60;99.90;;;;;;5032982;28;20170;-91
2021/07/17 08:40:14;;;;;;;16.67;13.90;;;24.50;99.90;;;;;;5026092;28;20112;-91
2021/07/17 08:42:45;;;;;;;15.15;13.55;;;24.50;99.90;;;;;;5009566;28;20033;-92
2021/07/17 08:45:12;;;;;;;15.60;13.25;;;24.20;99.90;;;;;;5028381;28;20407;-91
2021/07/17 08:47:41;;;;;;;18.77;13.38;;;24.00;99.90;;;;;;5019189;28;20029;-92
2021/07/17 08:50:09;;;;;;;15.38;13.45;;;23.90;99.90;;;;;;5023623;28;20220;-94
2021/07/17 08:52:37;;;;;;;15.35;13.77;;;23.90;99.90;;;;;;5022386;28;20028;-93
2021/07/17 08:55:04;;;;;;;14.38;12.88;;;23.80;99.90;;;;;;5041387;28;20049;-91
2021/07/17 08:57:39;;;;;;;15.07;12.90;;;23.70;99.90;;;;;;5020479;28;20026;-84
2021/07/17 09:00:11;;;;;;;15.02;13.52;;;23.50;99.90;;;;;;5023013;28;20492;-88
2021/07/17 09:02:38;;;;;;;20.40;15.85;;;23.60;99.90;;;;;;5012117;28;20393;-88
2021/07/17 09:05:07;;;;;;;16.10;14.07;;;23.80;99.90;;;;;;5028397;28;20382;-88
2021/07/17 09:07:33;;;;;;;15.35;13.85;;;23.80;99.90;;;;;;5023055;28;20440;-87
2021/07/17 09:09:58;;;;;;;14.85;13.02;;;23.70;99.90;;;;;;5022785;28;20060;-87
2021/07/17 09:12:28;;;;;;;15.82;14.02;;;23.80;99.90;;;;;;5020285;28;20021;-88
2021/07/17 09:14:54;;;;;;;19.48;16.77;;;23.80;99.90;;;;;;5020453;28;20021;-87
2021/07/17 09:17:27;;;;;;;18.58;14.68;;;23.80;99.90;;;;;;5021970;28;20126;-86
2021/07/17 09:19:56;;;;;;;16.60;14.45;;;23.90;99.90;;;;;;5020564;28;20025;-88
2021/07/17 09:22:36;;;;;;;15.55;13.95;;;24.00;99.90;;;;;;5018254;28;20113;-88
2021/07/17 09:25:12;;;;;;;17.57;13.40;;;24.10;99.90;;;;;;5020528;28;20017;-87
2021/07/17 09:27:38;;;;;;;14.75;13.23;;;24.00;99.90;;;;;;5015744;28;20068;-87
2021/07/17 09:30:24;;;;;;;17.08;14.32;;;24.10;99.90;;;;;;5000045;28;20022;-87
2021/07/17 09:33:04;;;;;;;15.10;13.68;;;24.10;99.90;;;;;;5014518;28;20052;-86
2021/07/17 09:35:33;;;;;;;16.42;13.82;;;;;;;;;;5021365;28;20067;-89
2021/07/17 09:38:00;;;;;;;15.20;13.63;;;24.20;99.90;;;;;;5020600;28;20045;-86
2021/07/17 09:40:26;;;;;;;15.90;14.30;;;24.40;99.90;;;;;;5016971;28;20022;-86
2021/07/17 09:42:52;;;;;;;15.32;13.73;;;24.40;99.90;;;;;;5006560;28;20045;-86
2021/07/17 09:45:36;;;;;;;17.25;13.90;;;24.60;99.90;;;;;;5022403;28;20476;-86
2021/07/17 09:48:22;;;;;;;17.42;13.93;;;24.60;99.90;;;;;;5022758;28;20029;-86
2021/07/17 09:50:49;;;;;;;15.35;13.75;;;24.80;99.90;;;;;;5019382;28;20032;-84
2021/07/17 09:53:41;;;;;;;14.90;13.23;;;24.70;99.90;;;;;;5016784;28;20038;-86
2021/07/17 09:56:11;;;;;;;13.57;12.18;;;24.70;99.90;;;;;;5009827;28;20028;-85
2021/07/17 09:58:38;;;;;;;;;;;24.80;99.90;;;;;;5007742;28;20034;-87
2021/07/17 10:01:14;;;;;;;14.20;12.80;;;24.90;99.90;;;;;;5012503;28;20332;-91
2021/07/17 10:03:40;;;;;;;14.80;12.57;;;;;;;;;;5010092;28;20064;-91
2021/07/17 10:06:08;;;;;;;13.88;12.50;;;24.80;99.90;;;;;;5009080;28;20057;-94
2021/07/17 10:08:37;;;;;;;14.80;13.38;;;24.70;99.90;;;;;;5016813;28;20038;-93
2021/07/17 10:11:11;;;;;;;15.75;13.32;;;24.70;99.90;;;;;;5016628;28;20031;-95
2021/07/17 10:13:40;;;;;;;15.27;13.65;;;;;;;;;;5019458;28;20053;-94
2021/07/17 10:16:21;;;;;;;15.10;13.70;;;25.40;99.90;;;;;;5008971;28;20045;-95
2021/07/17 10:18:53;;;;;;;;;;;25.70;99.90;;;;;;4990696;28;20061;-93
2021/07/17 10:21:21;;;;;;;13.50;12.10;;;25.90;99.90;;;;;;5025350;28;19973;-92
2021/07/17 10:23:47;;;;;;;14.60;12.82;;;;;;;;;;5011026;28;20113;-93
2021/07/17 10:26:13;;;;;;;16.95;14.77;;;;;;;;;;5003716;28;20472;-93
2021/07/17 10:28:39;;;;;;;17.15;13.20;;;;;;;;;;5000239;28;20053;-92
2021/07/17 10:31:06;;;;;;;17.17;13.25;;;27.10;99.90;;;;;;5006522;28;20035;-92
2021/07/17 10:33:34;;;;;;;19.45;12.73;;;27.50;99.90;;;;;;5010793;28;20074;-92
2021/07/17 10:36:08;;;;;;;18.98;13.45;;;27.50;99.90;;;;;;5002532;28;20174;-88
2021/07/17 10:38:38;;;;;;;16.55;12.98;;;27.50;99.90;;;;;;5008745;28;20587;-87
2021/07/17 10:41:15;;;;;;;18.27;13.55;;;27.20;99.90;;;;;;4979106;28;20049;-86
2021/07/17 10:43:52;;;;;;;15.18;13.02;;;26.70;99.90;;;;;;5000695;28;20830;-89
2021/07/17 10:46:44;;;;;;;14.25;12.55;;;26.70;99.90;;;;;;5015661;28;20097;-87
2021/07/17 10:49:11;;;;;;;14.30;12.77;;;26.60;99.90;;;;;;4994178;28;20042;-86
2021/07/17 10:51:42;;;;;;;14.00;12.70;;;26.70;99.90;;;;;;4999512;28;20103;-80
2021/07/17 10:54:12;;;;;;;15.70;13.10;;;26.90;99.90;;;;;;5004065;28;20073;-81
2021/07/17 10:56:39;;;;;;;;;;;27.10;99.90;;;;;;5010581;28;20057;-81
2021/07/17 10:59:37;;;;;;;14.15;12.68;;;27.10;99.90;;;;;;5002574;28;19917;-79
2021/07/17 11:02:06;;;;;;;17.40;13.20;;;27.20;99.90;;;;;;5006686;28;20026;-78
2021/07/17 11:04:47;;;;;;;15.63;12.32;;;28.30;99.90;;;;;;5013471;28;20044;-80
2021/07/17 11:07:16;;;;;;;14.40;12.60;;;28.90;99.90;;;;;;5006135;28;20069;-77
2021/07/17 11:09:56;;;;;;;13.88;12.48;;;28.60;99.90;;;;;;5018106;28;20025;-78
2021/07/17 11:13:01;;;;;;;13.82;12.32;;;29.30;99.90;;;;;;5016754;28;20033;-79
2021/07/17 11:15:34;;;;;;;12.93;11.68;;;28.90;99.90;;;;;;4979857;28;20026;-79
2021/07/17 11:18:21;;;;;;;14.63;12.18;;;28.90;99.90;;;;;;5025473;28;20032;-79
2021/07/17 11:20:47;;;;;;;12.60;11.50;;;29.20;99.90;;;;;;5008714;28;20021;-78
2021/07/17 11:23:16;;;;;;;13.27;11.98;;;29.20;99.90;;;;;;5021869;28;20129;-77
2021/07/17 11:25:56;;;;;;;12.70;11.45;;;29.60;99.90;;;;;;5015542;28;20453;-78
2021/07/17 11:28:44;;;;;;;12.65;11.50;;;30.60;99.90;;;;;;5018865;28;20558;-78
2021/07/17 11:31:28;;;;;;;14.02;12.63;;;31.20;99.90;;;;;;5002166;28;20029;-78
2021/07/17 11:36:39;;;;;;;15.00;13.45;;;30.50;99.90;;;;;;5015194;28;20034;-77
2021/07/17 11:39:07;;;;;;;13.82;12.52;;;30.30;99.90;;;;;;5020117;28;20033;-79
2021/07/17 11:41:33;;;;;;;12.38;11.13;;;30.30;99.90;;;;;;5020323;28;20116;-78
2021/07/17 11:43:59;;;;;;;12.38;11.18;;;30.00;99.90;;;;;;4998741;28;20043;-77
2021/07/17 11:46:24;;;;;;;12.88;11.70;;;30.70;99.90;;;;;;5025518;28;20680;-78
2021/07/17 11:49:03;;;;;;;12.35;11.23;;;30.90;99.20;;;;;;5022378;28;20041;-78
2021/07/17 11:51:29;;;;;;;11.85;10.75;;;30.10;99.40;;;;;;5026894;28;20033;-77
2021/07/17 11:54:07;;;;;;;12.73;11.63;;;30.00;99.90;;;;;;5025726;28;20499;-77
2021/07/17 11:56:33;;;;;;;12.57;11.38;;;29.90;99.90;;;;;;5027191;28;20079;-78
2021/07/17 11:59:17;;;;;;;12.75;11.55;;;30.30;99.60;;;;;;5025474;28;20115;-77
2021/07/17 12:02:08;;;;;;;11.27;10.27;;;31.00;98.90;;;;;;5020690;28;20487;-78
2021/07/17 12:04:54;;;;;;;11.10;10.10;;;30.90;97.50;;;;;;5024866;28;20068;-78
2021/07/17 12:07:28;;;;;;;11.95;10.75;;;30.30;97.80;;;;;;5016946;28;20025;-77
2021/07/17 12:10:00;;;;;;;12.10;10.95;;;30.20;98.10;;;;;;5021423;28;20438;-77
2021/07/17 12:12:27;;;;;;;12.38;11.20;;;29.50;98.80;;;;;;5013712;28;20534;-77
2021/07/17 12:15:11;;;;;;;12.90;10.80;;;29.50;99.50;;;;;;5020890;28;20122;-77
2021/07/17 12:17:49;;;;;;;11.68;10.57;;;30.30;98.00;;;;;;5000091;28;20026;-77
2021/07/17 12:20:20;;;;;;;12.43;11.32;;;30.60;97.30;;;;;;5017049;28;20045;-76
2021/07/17 12:22:53;;;;;;;11.43;10.43;;;31.50;96.20;;;;;;5021269;28;20033;-77
2021/07/17 12:25:24;;;;;;;11.88;10.77;;;31.80;95.90;;;;;;5008979;28;20046;-78
2021/07/17 12:27:52;;;;;;;11.05;10.05;;;32.10;95.10;;;;;;5024398;28;20120;-78
2021/07/17 12:30:18;;;;;;;10.98;9.98;;;31.80;93.80;;;;;;5026625;28;20095;-78
2021/07/17 12:32:43;;;;;;;11.23;10.15;;;31.80;93.90;;;;;;5025517;28;20496;-78
2021/07/17 12:35:09;;;;;;;11.40;10.25;;;32.10;93.30;;;;;;5021953;28;20117;-77
2021/07/17 12:37:38;;;;;;;11.38;10.30;;;31.90;93.30;;;;;;5026520;28;20042;-77
2021/07/17 12:40:13;;;;;;;11.13;10.15;;;31.70;93.10;;;;;;5022886;28;20376;-77
2021/07/17 12:42:47;;;;;;;11.70;10.55;;;30.20;94.70;;;;;;5017033;28;20024;-77